createdAt,value
2023-02-11T00:02:30.022Z,68.53
2023-02-11T00:04:57.780Z,68.68
2023-02-11T00:07:24.919Z,68.67
2023-02-11T00:12:38.364Z,69.02
2023-02-11T00:15:07.940Z,68.96
2023-02-11T00:17:36.765Z,69.30
2023-02-11T00:20:07.193Z,69.13
2023-02-11T00:22:35.170Z,68.78
2023-02-11T00:25:04.903Z,69.08
2023-02-11T00:27:32.571Z,68.96
2023-02-11T00:30:02.325Z,69.08
2023-02-11T00:32:29.424Z,69.05
2023-02-11T00:35:03.200Z,68.82
2023-02-11T00:37:31.907Z,69.07
2023-02-11T00:40:01.215Z,69.71
2023-02-11T00:42:28.238Z,69.88
2023-02-11T00:44:55.756Z,69.52
2023-02-11T00:47:23.010Z,69.41
2023-02-11T00:49:50.382Z,69.57
2023-02-11T00:52:17.412Z,69.68
2023-02-11T00:54:45.042Z,69.58
2023-02-11T00:57:12.263Z,69.79
2023-02-11T00:59:40.442Z,69.51
2023-02-11T01:02:07.572Z,69.54
2023-02-11T01:04:35.458Z,69.55
2023-02-11T01:07:02.582Z,69.63
2023-02-11T01:09:30.151Z,70.02
2023-02-11T01:11:57.164Z,69.95
2023-02-11T01:14:24.873Z,70.10
2023-02-11T01:16:52.682Z,70.04
2023-02-11T01:19:20.654Z,70.50
2023-02-11T01:21:47.869Z,70.40
2023-02-11T01:24:16.384Z,70.34
2023-02-11T01:26:43.384Z,70.48
2023-02-11T01:29:10.772Z,70.47
2023-02-11T01:31:38.263Z,70.48
2023-02-11T01:34:05.760Z,70.77
2023-02-11T01:36:33.048Z,70.98
2023-02-11T01:39:00.418Z,70.97
2023-02-11T01:41:27.496Z,70.72
2023-02-11T01:43:54.880Z,70.75
2023-02-11T01:46:38.753Z,70.70
2023-02-11T01:49:10.340Z,70.73
2023-02-11T01:51:42.405Z,70.47
2023-02-11T01:54:33.653Z,70.78
2023-02-11T01:57:24.203Z,70.29
2023-02-11T02:00:00.565Z,69.92
2023-02-11T02:02:37.787Z,70.06
2023-02-11T02:05:14.957Z,70.11
2023-02-11T02:07:56.541Z,70.00
2023-02-11T02:10:27.208Z,70.15
2023-02-11T02:12:54.824Z,70.40
2023-02-11T02:15:24.552Z,70.43
2023-02-11T02:18:17.551Z,70.70
2023-02-11T02:20:50.886Z,70.86
2023-02-11T02:23:26.874Z,70.65
2023-02-11T02:26:13.003Z,70.64
2023-02-11T02:28:58.765Z,70.23
2023-02-11T02:31:53.393Z,70.69
2023-02-11T02:34:36.322Z,70.87
2023-02-11T02:37:17.477Z,70.69
2023-02-11T02:39:48.548Z,70.96
2023-02-11T02:42:17.124Z,71.05
2023-02-11T02:44:50.679Z,71.38
2023-02-11T02:47:18.165Z,71.30
2023-02-11T02:49:45.428Z,71.57
2023-02-11T02:52:35.682Z,71.36
2023-02-11T02:55:35.137Z,71.58
2023-02-11T02:58:24.185Z,71.23
2023-02-11T03:01:22.283Z,71.60
2023-02-11T03:03:53.753Z,71.60
2023-02-11T03:06:42.449Z,71.49
2023-02-11T03:09:19.604Z,71.71
2023-02-11T03:11:46.668Z,71.86
2023-02-11T03:14:17.513Z,71.65
2023-02-11T03:16:48.766Z,72.24
2023-02-11T03:19:24.760Z,71.86
2023-02-11T03:21:53.801Z,72.22
2023-02-11T03:24:28.372Z,72.23
2023-02-11T03:26:59.489Z,72.43
2023-02-11T03:29:57.375Z,72.30
2023-02-11T03:32:41.596Z,72.32
2023-02-11T03:35:15.323Z,72.47
2023-02-11T03:38:07.756Z,73.06
2023-02-11T03:40:41.446Z,73.27
2023-02-11T03:43:17.922Z,73.05
2023-02-11T03:45:49.672Z,73.24
2023-02-11T03:48:40.435Z,73.44
2023-02-11T03:51:11.187Z,72.87
2023-02-11T03:53:39.385Z,72.88
2023-02-11T03:56:11.258Z,73.17
2023-02-11T03:58:38.276Z,72.66
2023-02-11T04:01:09.009Z,72.19
2023-02-11T04:03:39.284Z,72.00
2023-02-11T04:06:08.781Z,72.11
2023-02-11T04:08:36.179Z,72.20
2023-02-11T04:11:09.259Z,72.33
2023-02-11T04:13:37.132Z,72.06
2023-02-11T04:16:04.715Z,72.13
2023-02-11T04:18:31.944Z,71.85
2023-02-11T04:21:00.975Z,71.76
2023-02-11T04:23:28.497Z,72.00
2023-02-11T04:25:57.101Z,72.18
2023-02-11T04:28:24.378Z,72.42
2023-02-11T04:30:51.878Z,71.94
2023-02-11T04:33:19.264Z,71.75
2023-02-11T04:35:46.927Z,71.82
2023-02-11T04:38:14.469Z,71.63
2023-02-11T04:40:43.670Z,71.52
2023-02-11T04:43:10.846Z,71.37
2023-02-11T04:45:46.384Z,71.36
2023-02-11T04:48:13.380Z,71.61
2023-02-11T04:50:41.692Z,71.88
2023-02-11T04:53:08.842Z,71.42
2023-02-11T04:55:36.344Z,71.89
2023-02-11T04:58:03.533Z,71.25
2023-02-11T05:00:31.006Z,71.28
2023-02-11T05:02:58.031Z,71.53
2023-02-11T05:05:25.630Z,71.19
2023-02-11T05:07:53.071Z,70.88
2023-02-11T05:10:20.619Z,70.46
2023-02-11T05:12:49.349Z,69.98
2023-02-11T05:15:16.876Z,69.67
2023-02-11T05:17:44.472Z,69.78
2023-02-11T05:20:11.996Z,69.56
2023-02-11T05:22:39.124Z,69.39
2023-02-11T05:25:08.875Z,69.03
2023-02-11T05:27:37.033Z,69.47
2023-02-11T05:30:06.165Z,69.47
2023-02-11T05:32:34.030Z,69.53
2023-02-11T05:35:01.733Z,69.52
2023-02-11T05:37:28.899Z,69.74
2023-02-11T05:39:56.340Z,69.50
2023-02-11T05:42:23.980Z,69.52
2023-02-11T05:44:54.324Z,68.98
2023-02-11T05:47:21.483Z,68.57
2023-02-11T05:49:50.175Z,68.66
2023-02-11T05:52:17.638Z,68.22
2023-02-11T05:54:45.500Z,67.86
2023-02-11T05:57:14.263Z,67.52
2023-02-11T05:59:41.953Z,67.55
2023-02-11T06:02:09.652Z,67.80
2023-02-11T06:04:37.942Z,67.64
2023-02-11T06:07:05.305Z,67.54
2023-02-11T06:09:32.939Z,67.66
2023-02-11T06:12:00.253Z,67.56
2023-02-11T06:14:33.839Z,67.71
2023-02-11T06:17:08.947Z,67.72
2023-02-11T06:19:36.687Z,67.66
2023-02-11T06:22:05.087Z,67.17
2023-02-11T06:24:55.012Z,67.05
2023-02-11T06:27:20.954Z,67.03
2023-02-11T06:29:57.064Z,67.43
2023-02-11T06:32:43.335Z,67.16
2023-02-11T06:35:45.771Z,66.72
2023-02-11T06:38:13.053Z,66.45
2023-02-11T06:40:40.770Z,66.53
2023-02-11T06:43:07.889Z,66.77
2023-02-11T06:45:35.424Z,66.61
2023-02-11T06:48:02.785Z,66.48
2023-02-11T06:50:30.453Z,66.88
2023-02-11T06:53:01.377Z,66.57
2023-02-11T06:55:29.257Z,66.15
2023-02-11T06:57:57.876Z,65.74
2023-02-11T07:00:26.979Z,65.66
2023-02-11T07:02:54.222Z,65.09
2023-02-11T07:05:22.441Z,64.37
2023-02-11T07:07:50.152Z,64.18
2023-02-11T07:10:17.784Z,64.11
2023-02-11T07:12:44.862Z,64.05
2023-02-11T07:15:12.434Z,63.97
2023-02-11T07:20:23.776Z,63.15
2023-02-11T07:22:51.829Z,62.86
2023-02-11T07:25:20.090Z,62.53
2023-02-11T07:27:57.436Z,62.66
2023-02-11T07:30:40.340Z,62.20
2023-02-11T07:33:26.581Z,61.92
2023-02-11T07:35:54.828Z,62.33
2023-02-11T07:41:11.083Z,61.31
2023-02-11T07:43:54.831Z,61.04
2023-02-11T07:46:51.600Z,60.27
2023-02-11T07:49:20.530Z,60.45
2023-02-11T07:51:49.611Z,60.59
2023-02-11T07:54:21.063Z,59.72
2023-02-11T07:59:48.632Z,59.26
2023-02-11T08:02:19.648Z,58.24
2023-02-11T08:04:53.723Z,58.58
2023-02-11T08:07:25.238Z,58.50
2023-02-11T08:09:54.562Z,57.93
2023-02-11T08:12:24.894Z,58.10
2023-02-11T08:14:52.616Z,57.83
2023-02-11T08:17:22.772Z,57.58
2023-02-11T08:19:53.493Z,57.42
2023-02-11T08:22:24.616Z,57.50
2023-02-11T08:24:54.388Z,56.65
2023-02-11T08:27:22.287Z,57.18
2023-02-11T08:29:49.550Z,57.53
2023-02-11T08:32:18.779Z,57.58
2023-02-11T08:34:46.289Z,58.16
2023-02-11T08:37:16.058Z,57.80
2023-02-11T08:39:43.036Z,57.97
2023-02-11T08:42:10.904Z,57.63
2023-02-11T08:44:49.534Z,58.00
2023-02-11T08:47:21.005Z,57.85
2023-02-11T08:49:48.540Z,57.32
2023-02-11T08:52:16.340Z,57.21
2023-02-11T08:54:44.050Z,57.02
2023-02-11T08:57:11.602Z,56.84
2023-02-11T08:59:42.813Z,57.38
2023-02-11T09:02:14.306Z,57.35
2023-02-11T09:04:42.430Z,57.52
2023-02-11T09:07:10.352Z,57.41
2023-02-11T09:09:37.543Z,56.56
2023-02-11T09:14:47.459Z,55.65
2023-02-11T09:17:17.968Z,55.27
2023-02-11T09:19:47.447Z,55.36
2023-02-11T09:22:15.204Z,54.86
2023-02-11T09:24:52.832Z,54.48
2023-02-11T09:27:20.472Z,54.20
2023-02-11T09:29:50.716Z,51.87
2023-02-11T09:32:20.410Z,48.60
2023-02-11T09:34:48.488Z,43.40
2023-02-11T09:37:20.905Z,39.97
2023-02-11T09:39:48.162Z,38.10
2023-02-11T09:42:40.521Z,36.10
2023-02-11T09:45:34.414Z,33.81
2023-02-11T09:48:12.704Z,33.36
2023-02-11T09:50:43.952Z,32.69
2023-02-11T09:58:55.113Z,30.90
2023-02-11T10:01:41.454Z,31.63
2023-02-11T10:04:18.263Z,31.32
2023-02-11T10:06:50.931Z,30.30
2023-02-11T10:09:49.800Z,30.12
2023-02-11T10:12:48.438Z,30.31
2023-02-11T10:15:41.021Z,29.41
2023-02-11T10:18:33.556Z,28.41
2023-02-11T10:21:49.352Z,28.37
2023-02-11T10:24:19.846Z,28.88
2023-02-11T10:26:49.812Z,29.06
2023-02-11T10:29:35.710Z,29.27
2023-02-11T10:32:30.922Z,28.36
2023-02-11T10:38:09.255Z,29.13
2023-02-11T10:40:36.873Z,29.12
2023-02-11T10:43:18.727Z,30.68
2023-02-11T10:45:56.925Z,31.36
2023-02-11T10:51:35.379Z,32.58
2023-02-11T10:54:19.756Z,34.11
2023-02-11T10:59:44.294Z,35.23
2023-02-11T11:02:44.575Z,36.26
2023-02-11T11:05:22.122Z,37.71
2023-02-11T11:08:00.394Z,38.91
2023-02-11T11:16:37.553Z,40.15
2023-02-11T11:19:07.460Z,39.55
2023-02-11T11:21:49.833Z,39.73
2023-02-11T11:24:34.716Z,39.67
2023-02-11T11:27:05.593Z,40.27
2023-02-11T11:29:39.658Z,40.87
2023-02-11T11:32:20.202Z,41.02
2023-02-11T11:34:56.168Z,41.47
2023-02-11T11:37:28.887Z,42.74
2023-02-11T11:40:22.812Z,43.46
2023-02-11T11:43:17.588Z,43.78
2023-02-11T11:46:02.173Z,43.71
2023-02-11T11:48:42.759Z,43.61
2023-02-11T11:51:13.749Z,44.24
2023-02-11T11:53:46.193Z,43.79
2023-02-11T11:56:27.651Z,43.19
2023-02-11T11:59:04.351Z,42.20
2023-02-11T12:01:51.679Z,42.03
2023-02-11T12:04:37.622Z,42.74
2023-02-11T12:07:46.655Z,43.07
2023-02-11T12:10:33.283Z,42.75
2023-02-11T12:13:28.500Z,41.76
2023-02-11T12:16:12.092Z,40.24
2023-02-11T12:19:17.246Z,38.72
2023-02-11T12:22:12.664Z,37.31
2023-02-11T12:25:17.489Z,36.52
2023-02-11T12:27:55.536Z,36.42
2023-02-11T12:30:22.758Z,35.41
2023-02-11T12:33:27.674Z,35.44
2023-02-11T12:39:40.423Z,32.67
2023-02-11T12:42:29.142Z,32.82
2023-02-11T12:44:57.037Z,32.62
2023-02-11T12:47:44.742Z,33.45
2023-02-11T12:50:30.805Z,34.10
2023-02-11T12:53:25.494Z,34.63
2023-02-11T12:55:56.588Z,36.54
2023-02-11T13:01:45.278Z,37.46
2023-02-11T13:04:20.417Z,38.53
2023-02-11T13:07:08.685Z,38.65
2023-02-11T13:12:56.665Z,38.65
2023-02-11T13:15:25.939Z,37.66
2023-02-11T13:17:57.653Z,37.78
2023-02-11T13:21:03.547Z,38.45
2023-02-11T13:24:00.793Z,39.17
2023-02-11T13:26:47.737Z,39.78
2023-02-11T13:29:20.793Z,40.57
2023-02-11T13:32:21.572Z,40.72
2023-02-11T13:34:52.787Z,41.07
2023-02-11T13:37:24.359Z,41.41
2023-02-11T13:39:58.775Z,41.33
2023-02-11T13:42:26.725Z,40.56
2023-02-11T13:44:58.844Z,39.98
2023-02-11T13:47:29.266Z,40.33
2023-02-11T13:55:35.026Z,42.07
2023-02-11T13:58:08.548Z,42.89
2023-02-11T14:00:37.384Z,44.48
2023-02-11T14:03:32.954Z,45.10
2023-02-11T14:06:30.103Z,46.16
2023-02-11T14:09:17.417Z,46.53
2023-02-11T14:11:49.461Z,46.15
2023-02-11T14:14:32.638Z,46.43
2023-02-11T14:17:02.030Z,47.08
2023-02-11T14:19:39.885Z,47.13
2023-02-11T14:25:28.028Z,47.94
2023-02-11T14:28:25.249Z,48.05
2023-02-11T14:31:08.964Z,48.47
2023-02-11T14:38:04.350Z,48.81
2023-02-11T14:41:02.938Z,49.09
2023-02-11T14:43:50.278Z,48.77
2023-02-11T14:46:22.227Z,49.26
2023-02-11T14:48:53.338Z,49.14
2023-02-11T14:51:39.666Z,49.53
2023-02-11T14:54:17.187Z,49.75
2023-02-11T14:56:47.800Z,49.93
2023-02-11T14:59:23.070Z,49.74
2023-02-11T15:01:54.898Z,50.17
2023-02-11T15:04:27.193Z,50.47
2023-02-11T15:06:58.267Z,50.31
2023-02-11T15:09:34.511Z,50.55
2023-02-11T15:12:02.047Z,50.54
2023-02-11T15:14:33.675Z,50.68
2023-02-11T15:17:08.277Z,51.02
2023-02-11T15:19:40.017Z,51.45
2023-02-11T15:22:18.658Z,51.58
2023-02-11T15:24:57.651Z,51.85
2023-02-11T15:27:25.973Z,51.68
2023-02-11T15:29:53.147Z,52.05
2023-02-11T15:32:23.964Z,52.50
2023-02-11T15:34:54.340Z,52.29
2023-02-11T15:37:29.963Z,52.25
2023-02-11T15:40:19.359Z,52.44
2023-02-11T15:43:07.781Z,52.41
2023-02-11T15:45:41.732Z,52.56
2023-02-11T15:48:21.392Z,52.48
2023-02-11T15:51:00.474Z,52.42
2023-02-11T15:53:53.743Z,52.40
2023-02-11T15:56:26.632Z,53.09
2023-02-11T15:58:57.338Z,53.12
2023-02-11T16:04:31.178Z,52.81
2023-02-11T16:06:58.356Z,52.77
2023-02-11T16:09:36.549Z,53.08
2023-02-11T16:12:22.677Z,53.70
2023-02-11T16:14:52.647Z,54.17
2023-02-11T16:17:25.344Z,54.13
2023-02-11T16:19:57.654Z,54.46
2023-02-11T16:22:35.447Z,53.55
2023-02-11T16:25:02.948Z,53.90
2023-02-11T16:27:38.157Z,53.76
2023-02-11T16:30:40.540Z,53.77
2023-02-11T16:33:11.254Z,53.64
2023-02-11T16:35:38.701Z,53.95
2023-02-11T16:38:06.441Z,55.17
2023-02-11T16:40:38.687Z,54.46
2023-02-11T16:43:06.734Z,54.49
2023-02-11T16:45:42.863Z,54.06
2023-02-11T16:48:16.903Z,54.35
2023-02-11T16:51:34.423Z,54.24
2023-02-11T16:54:06.327Z,54.38
2023-02-11T16:56:34.286Z,54.32
2023-02-11T16:59:04.145Z,53.83
2023-02-11T17:01:32.765Z,53.95
2023-02-11T17:04:00.311Z,53.76
2023-02-11T17:06:28.741Z,54.05
2023-02-11T17:08:55.806Z,53.66
2023-02-11T17:11:23.278Z,54.07
2023-02-11T17:13:50.493Z,53.96
2023-02-11T17:16:21.041Z,53.88
2023-02-11T17:18:49.153Z,53.72
2023-02-11T17:21:16.951Z,53.59
2023-02-11T17:23:45.872Z,53.44
2023-02-11T17:26:13.200Z,53.62
2023-02-11T17:28:40.345Z,53.45
2023-02-11T17:31:09.595Z,53.43
2023-02-11T17:33:37.884Z,53.87
2023-02-11T17:36:07.293Z,53.82
2023-02-11T17:38:35.613Z,53.41
2023-02-11T17:41:04.917Z,53.76
2023-02-11T17:43:32.185Z,54.04
2023-02-11T17:45:59.705Z,53.54
2023-02-11T17:48:26.909Z,53.91
2023-02-11T17:50:54.269Z,53.91
2023-02-11T17:53:21.235Z,54.20
2023-02-11T17:55:48.856Z,54.35
2023-02-11T17:58:16.329Z,54.33
2023-02-11T18:00:43.819Z,54.40
2023-02-11T18:03:10.859Z,54.18
2023-02-11T18:05:38.828Z,54.80
2023-02-11T18:08:07.717Z,54.18
2023-02-11T18:10:36.296Z,54.09
2023-02-11T18:13:08.039Z,53.90
2023-02-11T18:15:35.981Z,54.52
2023-02-11T18:18:05.903Z,54.46
2023-02-11T18:23:24.329Z,54.40
2023-02-11T18:25:58.110Z,54.61
2023-02-11T18:28:27.365Z,54.89
2023-02-11T18:31:01.384Z,54.97
2023-02-11T18:33:30.049Z,54.88
2023-02-11T18:35:57.921Z,54.51
2023-02-11T18:38:26.106Z,54.95
2023-02-11T18:40:57.849Z,54.74
2023-02-11T18:43:26.106Z,55.06
2023-02-11T18:45:54.895Z,54.91
2023-02-11T18:48:23.014Z,55.01
2023-02-11T18:50:50.520Z,54.88
2023-02-11T18:53:18.915Z,54.61
2023-02-11T18:55:48.492Z,54.82
2023-02-11T18:58:23.291Z,54.12
2023-02-11T19:00:51.483Z,53.97
2023-02-11T19:03:22.764Z,54.66
2023-02-11T19:05:50.924Z,54.48
2023-02-11T19:08:20.263Z,54.66
2023-02-11T19:10:56.712Z,54.55
2023-02-11T19:13:49.549Z,54.45
2023-02-11T19:16:20.116Z,54.27
2023-02-11T19:18:47.334Z,54.66
2023-02-11T19:21:14.846Z,54.75
2023-02-11T19:23:44.360Z,54.50
2023-02-11T19:26:11.752Z,54.43
2023-02-11T19:28:39.477Z,54.91
2023-02-11T19:31:09.244Z,55.43
2023-02-11T19:33:36.730Z,55.05
2023-02-11T19:36:06.052Z,55.22
2023-02-11T19:38:33.194Z,55.06
2023-02-11T19:41:00.650Z,55.15
2023-02-11T19:43:28.069Z,54.83
2023-02-11T19:45:59.416Z,54.71
2023-02-11T19:48:26.684Z,54.76
2023-02-11T19:50:54.738Z,54.71
2023-02-11T19:53:21.898Z,54.55
2023-02-11T19:55:52.654Z,55.02
2023-02-11T19:58:19.856Z,55.07
2023-02-11T20:00:47.376Z,54.92
2023-02-11T20:03:14.529Z,54.95
2023-02-11T20:05:47.086Z,54.76
2023-02-11T20:08:17.191Z,54.67
2023-02-11T20:10:44.595Z,54.85
2023-02-11T20:13:14.021Z,55.23
2023-02-11T20:15:42.236Z,55.25
2023-02-11T20:18:09.323Z,55.73
2023-02-11T20:20:44.277Z,55.70
2023-02-11T20:23:41.212Z,55.75
2023-02-11T20:26:21.665Z,56.13
2023-02-11T20:28:51.106Z,56.05
2023-02-11T20:31:18.923Z,56.50
2023-02-11T20:33:48.689Z,56.28
2023-02-11T20:36:23.779Z,56.51
2023-02-11T20:38:52.520Z,56.46
2023-02-11T20:41:26.234Z,56.84
2023-02-11T20:43:55.899Z,56.90
2023-02-11T20:46:29.194Z,56.62
2023-02-11T20:48:58.407Z,56.49
2023-02-11T20:51:30.616Z,56.54
2023-02-11T20:53:58.506Z,56.99
2023-02-11T20:56:30.008Z,56.90
2023-02-11T20:58:59.932Z,56.85
2023-02-11T21:01:41.076Z,57.09
2023-02-11T21:04:12.428Z,56.94
2023-02-11T21:06:46.998Z,57.05
2023-02-11T21:09:17.674Z,56.82
2023-02-11T21:11:45.006Z,56.98
2023-02-11T21:14:12.912Z,56.51
2023-02-11T21:16:40.328Z,56.60
2023-02-11T21:19:07.384Z,56.82
2023-02-11T21:21:37.209Z,56.80
2023-02-11T21:24:06.748Z,57.29
2023-02-11T21:26:35.739Z,57.38
2023-02-11T21:29:07.320Z,57.32
2023-02-11T21:31:36.250Z,57.85
2023-02-11T21:34:03.469Z,57.54
2023-02-11T21:36:31.433Z,57.45
2023-02-11T21:38:58.878Z,57.52
2023-02-11T21:41:28.179Z,57.24
2023-02-11T21:43:55.350Z,57.14
2023-02-11T21:46:23.491Z,57.41
2023-02-11T21:48:50.685Z,57.23
2023-02-11T21:51:21.157Z,57.22
2023-02-11T21:53:48.187Z,57.51
2023-02-11T21:56:18.581Z,57.12
2023-02-11T21:58:49.204Z,57.32
2023-02-11T22:01:25.679Z,57.26
2023-02-11T22:03:52.859Z,57.45
2023-02-11T22:06:26.400Z,57.81
2023-02-11T22:08:55.020Z,57.93
2023-02-11T22:11:24.363Z,57.76
2023-02-11T22:13:56.496Z,57.62
2023-02-11T22:16:25.874Z,57.89
2023-02-11T22:18:53.496Z,57.81
2023-02-11T22:21:22.698Z,57.59
2023-02-11T22:23:52.052Z,57.85
2023-02-11T22:26:23.911Z,57.89
2023-02-11T22:28:52.224Z,57.99
2023-02-11T22:31:22.821Z,57.85
2023-02-11T22:33:51.151Z,57.96
2023-02-11T22:36:39.384Z,57.95
2023-02-11T22:39:15.313Z,57.98
2023-02-11T22:41:44.583Z,57.67
2023-02-11T22:44:22.539Z,57.60
2023-02-11T22:46:50.990Z,58.18
2023-02-11T22:49:20.019Z,58.22
2023-02-11T22:51:48.401Z,58.03
2023-02-11T22:54:18.562Z,58.20
2023-02-11T22:56:49.679Z,58.53
2023-02-11T22:59:17.153Z,58.60
2023-02-11T23:01:45.117Z,58.14
2023-02-11T23:04:14.944Z,58.19
2023-02-11T23:06:43.232Z,57.82
2023-02-11T23:09:13.957Z,57.63
2023-02-11T23:11:41.770Z,58.03
2023-02-11T23:14:12.356Z,57.79
2023-02-11T23:16:40.021Z,57.77
2023-02-11T23:19:08.953Z,57.70
2023-02-11T23:21:38.845Z,57.89
2023-02-11T23:24:10.556Z,58.27
2023-02-11T23:26:40.194Z,58.38
2023-02-11T23:29:07.536Z,57.96
2023-02-11T23:31:39.896Z,58.54
2023-02-11T23:34:09.103Z,59.09
2023-02-11T23:36:37.178Z,59.10
2023-02-11T23:39:05.061Z,59.31
2023-02-11T23:41:34.445Z,58.86
2023-02-11T23:44:01.484Z,58.75
2023-02-11T23:46:28.942Z,58.52
2023-02-11T23:48:56.296Z,59.07
2023-02-11T23:51:24.013Z,59.14
2023-02-11T23:53:51.755Z,59.22
2023-02-11T23:56:21.495Z,59.09
2023-02-11T23:58:49.991Z,58.93
